Time;durP1;ratioP1;P1;durP2;ratioP2;P2;SDS_P1;SDS_P2;PMS_P1;PMS_P2;Temp;Humidity;BMP_temperature;BMP_pressure;BME280_temperature;BME280_humidity;BME280_pressure;Samples;Min_cycle;Max_cycle;Signal;HPM_P1;HPM_P2
2022/11/29 00:02:21;;;;;;;49.40;19.33;;;-2.20;99.90;;;;;;4408741;28;659579;-64
2022/11/29 00:05:08;;;;;;;46.40;18.67;;;-2.30;99.90;;;;;;4427076;28;659578;-63
2022/11/29 00:07:55;;;;;;;58.13;21.93;;;-2.30;99.90;;;;;;4407731;28;658968;-63
2022/11/29 00:10:43;;;;;;;65.57;25.43;;;-2.40;99.90;;;;;;4426782;28;660078;-64
2022/11/29 00:13:30;;;;;;;55.60;24.27;;;-2.40;99.90;;;;;;4421420;28;658814;-65
2022/11/29 00:16:18;;;;;;;49.53;19.50;;;-2.40;99.90;;;;;;4431571;28;658201;-63
2022/11/29 00:19:06;;;;;;;50.83;20.17;;;-2.40;99.90;;;;;;4408083;28;658526;-64
2022/11/29 00:21:53;;;;;;;43.77;18.50;;;-2.30;99.90;;;;;;4430837;28;659551;-63
2022/11/29 00:24:41;;;;;;;47.93;19.77;;;-2.30;99.90;;;;;;4417024;28;658584;-65
2022/11/29 00:27:28;;;;;;;44.77;19.00;;;-2.20;99.90;;;;;;4430345;28;659374;-63
2022/11/29 00:30:15;;;;;;;42.70;20.20;;;-2.20;99.90;;;;;;4406896;28;658752;-64
2022/11/29 00:33:04;;;;;;;48.27;19.37;;;-2.10;99.90;;;;;;4426030;28;659649;-63
2022/11/29 00:35:51;;;;;;;48.15;18.92;;;-2.10;99.90;;;;;;4407921;28;658638;-63
2022/11/29 00:38:38;;;;;;;43.67;18.97;;;-2.20;99.90;;;;;;4426466;28;660054;-63
2022/11/29 00:41:25;;;;;;;48.43;19.30;;;-2.30;99.90;;;;;;4407223;28;658710;-64
2022/11/29 00:44:12;;;;;;;46.50;19.67;;;-2.30;99.90;;;;;;4426088;28;659687;-63
2022/11/29 00:47:00;;;;;;;42.70;17.20;;;-2.30;99.90;;;;;;4426030;28;658286;-65
2022/11/29 00:49:48;;;;;;;45.78;18.60;;;-2.30;99.90;;;;;;4430474;28;658252;-63
2022/11/29 00:52:36;;;;;;;46.63;17.87;;;-2.30;99.90;;;;;;4407274;28;658498;-63
2022/11/29 00:55:23;;;;;;;44.87;18.40;;;-2.30;99.90;;;;;;4430347;28;659741;-63
2022/11/29 00:58:10;;;;;;;46.20;19.77;;;-2.40;99.90;;;;;;4419053;28;659435;-65
2022/11/29 01:00:57;;;;;;;39.35;17.17;;;-2.40;99.90;;;;;;4623384;28;658159;-63
2022/11/29 01:03:44;;;;;;;48.57;20.17;;;-2.50;99.90;;;;;;4711819;28;536168;-63
2022/11/29 01:06:33;;;;;;;51.10;21.60;;;-2.40;99.90;;;;;;4406839;28;658982;-63
2022/11/29 01:09:20;;;;;;;61.17;25.27;;;-2.40;99.90;;;;;;4419984;28;659466;-65
2022/11/29 01:12:07;;;;;;;62.67;25.85;;;-2.40;99.90;;;;;;4433887;28;658064;-63
2022/11/29 01:14:55;;;;;;;62.63;23.97;;;-2.40;99.90;;;;;;4428996;28;658997;-66
2022/11/29 01:17:42;;;;;;;70.75;26.77;;;-2.40;99.90;;;;;;4434258;28;658542;-65
2022/11/29 01:20:29;;;;;;;67.93;25.00;;;-2.50;99.90;;;;;;4429867;28;659554;-64
2022/11/29 01:23:18;;;;;;;75.23;27.03;;;-2.50;99.90;;;;;;4407369;28;658863;-64
2022/11/29 01:26:06;;;;;;;60.33;24.07;;;-2.60;99.90;;;;;;4421364;28;658701;-65
2022/11/29 01:28:54;;;;;;;65.03;24.70;;;-2.70;99.90;;;;;;4429376;28;660254;-65
2022/11/29 01:31:41;;;;;;;78.40;29.73;;;-2.80;99.90;;;;;;4410471;28;658617;-64
2022/11/29 01:34:28;;;;;;;73.20;32.43;;;-2.80;99.90;;;;;;4428970;28;660311;-64
2022/11/29 01:37:15;;;;;;;86.32;28.88;;;-2.80;99.90;;;;;;4410107;28;658629;-66
2022/11/29 01:40:04;;;;;;;98.47;33.22;;;-2.80;99.90;;;;;;4433135;28;659811;-64
2022/11/29 01:42:52;;;;;;;75.33;26.40;;;-2.90;99.90;;;;;;4410138;28;659648;-66
2022/11/29 01:45:39;;;;;;;73.10;28.20;;;-2.90;99.90;;;;;;4428826;28;658687;-64
2022/11/29 01:48:27;;;;;;;75.93;30.87;;;-3.00;99.90;;;;;;4410103;28;658534;-65
2022/11/29 01:51:14;;;;;;;89.40;33.70;;;-3.00;99.90;;;;;;4429057;28;658650;-64
2022/11/29 01:54:01;;;;;;;86.47;34.87;;;-3.10;99.90;;;;;;4410511;28;659366;-64
2022/11/29 01:56:50;;;;;;;88.90;37.25;;;-3.10;99.90;;;;;;4429157;28;659724;-64
2022/11/29 01:59:38;;;;;;;111.47;44.43;;;-3.10;99.90;;;;;;4405925;28;660263;-66
2022/11/29 02:02:29;;;;;;;122.90;43.37;;;-3.10;99.90;;;;;;4416569;28;660915;-66
2022/11/29 02:05:16;;;;;;;113.43;43.07;;;-3.20;99.90;;;;;;4408401;28;659748;-64
2022/11/29 02:08:03;;;;;;;79.03;35.43;;;-3.30;99.90;;;;;;4427323;28;660079;-65
2022/11/29 02:11:02;;;;;;;72.10;33.57;;;-3.30;99.90;;;;;;4409904;28;658684;-65
2022/11/29 02:13:56;;;;;;;76.40;35.47;;;-3.30;99.90;;;;;;4403466;28;658687;-66
2022/11/29 02:16:46;;;;;;;76.87;36.47;;;-3.20;99.90;;;;;;4406221;28;659684;-65
2022/11/29 02:20:05;;;;;;;107.70;45.63;;;-3.30;99.90;;;;;;4406160;28;659890;-65
2022/11/29 02:22:54;;;;;;;89.60;38.60;;;-3.30;99.90;;;;;;4404138;28;659806;-65
2022/11/29 02:25:51;;;;;;;62.50;28.47;;;-3.30;99.90;;;;;;4409464;28;658380;-64
2022/11/29 02:28:48;;;;;;;65.33;28.07;;;-3.30;99.90;;;;;;4409442;28;658816;-64
2022/11/29 02:31:53;;;;;;;64.57;27.80;;;-3.30;99.90;;;;;;4386592;28;659471;-66
2022/11/29 02:34:58;;;;;;;55.77;26.30;;;-3.40;99.90;;;;;;4386255;28;658613;-65
2022/11/29 02:38:06;;;;;;;70.10;31.83;;;-3.40;99.90;;;;;;4386392;28;659713;-65
2022/11/29 02:41:18;;;;;;;63.77;27.87;;;-3.40;99.90;;;;;;4404426;28;659126;-65
2022/11/29 02:44:18;;;;;;;66.50;27.80;;;-3.50;99.90;;;;;;4389657;28;658353;-66
2022/11/29 02:47:12;;;;;;;64.37;27.90;;;-3.60;99.90;;;;;;4386109;28;658774;-66
2022/11/29 02:50:27;;;;;;;76.73;30.80;;;-3.60;99.90;;;;;;4405382;28;658614;-64
2022/11/29 02:53:15;;;;;;;130.67;38.93;;;-3.60;99.90;;;;;;4405141;28;658212;-64
2022/11/29 02:56:06;;;;;;;177.40;44.03;;;-3.60;99.90;;;;;;4403793;28;660125;-64
2022/11/29 02:58:56;;;;;;;89.27;32.13;;;-3.60;99.90;;;;;;4403693;28;660849;-65
2022/11/29 03:01:46;;;;;;;83.57;30.87;;;-3.50;99.90;;;;;;4764700;28;659349;-64
2022/11/29 03:04:35;;;;;;;62.83;25.23;;;-3.40;99.90;;;;;;4519774;28;535990;-65
2022/11/29 03:07:28;;;;;;;66.83;26.03;;;-3.50;99.90;;;;;;4408922;28;660382;-64
2022/11/29 03:10:21;;;;;;;54.27;22.67;;;-3.60;99.90;;;;;;4395880;28;659737;-65
2022/11/29 03:13:11;;;;;;;62.07;21.73;;;-3.60;99.90;;;;;;4404202;28;658340;-65
2022/11/29 03:16:04;;;;;;;60.90;24.67;;;-3.50;99.90;;;;;;4405073;28;659877;-65
2022/11/29 03:18:56;;;;;;;71.33;24.50;;;-3.50;99.90;;;;;;4408113;28;659059;-65
2022/11/29 03:21:48;;;;;;;107.80;33.17;;;-3.50;99.90;;;;;;4403608;28;660102;-65
2022/11/29 03:24:40;;;;;;;103.07;30.27;;;-3.50;99.90;;;;;;4384325;28;659946;-66
2022/11/29 03:27:29;;;;;;;88.63;29.13;;;-3.50;99.90;;;;;;4406786;28;660264;-65
2022/11/29 03:30:17;;;;;;;63.13;26.20;;;-3.50;99.90;;;;;;4408230;28;659795;-64
2022/11/29 03:33:09;;;;;;;89.37;36.93;;;-3.50;99.90;;;;;;4426720;28;658506;-66
2022/11/29 03:35:59;;;;;;;87.57;34.60;;;-3.50;99.90;;;;;;4408026;28;658827;-65
2022/11/29 03:38:46;;;;;;;67.27;30.73;;;-3.60;99.90;;;;;;4407782;28;658379;-64
2022/11/29 03:41:37;;;;;;;66.20;26.63;;;-3.60;99.90;;;;;;4426705;28;659982;-64
2022/11/29 03:44:27;;;;;;;61.33;25.57;;;-3.60;99.90;;;;;;4399439;28;658619;-66
2022/11/29 03:47:15;;;;;;;61.80;25.07;;;-3.70;99.90;;;;;;4430882;28;658536;-64
2022/11/29 03:50:05;;;;;;;71.67;27.30;;;-3.70;99.90;;;;;;4404028;28;658697;-65
2022/11/29 03:52:53;;;;;;;65.07;26.13;;;-3.70;99.90;;;;;;4404180;28;659608;-65
2022/11/29 03:55:52;;;;;;;78.25;30.75;;;-3.80;99.90;;;;;;4407869;28;658640;-65
2022/11/29 03:58:47;;;;;;;73.07;28.33;;;-3.80;99.90;;;;;;4426635;28;658493;-66
2022/11/29 04:01:45;;;;;;;65.60;27.63;;;-3.80;99.90;;;;;;4403863;28;658268;-64
2022/11/29 04:05:17;;;;;;;58.17;25.88;;;-3.80;99.90;;;;;;4408598;28;658754;-65
2022/11/29 04:08:40;;;;;;;70.97;29.57;;;-3.80;99.90;;;;;;4404144;28;658921;-64
2022/11/29 04:11:57;;;;;;;75.23;31.23;;;-3.70;99.90;;;;;;4361685;28;659347;-64
2022/11/29 04:15:25;;;;;;;79.90;30.67;;;-3.70;99.90;;;;;;4422495;28;658552;-66
2022/11/29 04:18:36;;;;;;;68.23;29.50;;;-3.70;99.90;;;;;;4380721;28;659580;-64
2022/11/29 04:21:51;;;;;;;75.17;28.23;;;-3.70;99.90;;;;;;4403411;28;658852;-64
2022/11/29 04:25:22;;;;;;;77.00;30.80;;;-3.80;99.90;;;;;;4403739;28;658933;-64
2022/11/29 04:28:32;;;;;;;70.20;28.07;;;-3.80;99.90;;;;;;4408119;28;658497;-64
2022/11/29 04:31:27;;;;;;;69.17;26.70;;;-3.80;99.90;;;;;;4407568;28;658261;-64
2022/11/29 04:34:26;;;;;;;60.97;24.33;;;-3.80;99.90;;;;;;4403240;28;658775;-64
2022/11/29 04:37:29;;;;;;;55.43;23.87;;;-3.80;99.90;;;;;;4400498;28;659780;-64
2022/11/29 04:40:26;;;;;;;73.37;24.47;;;-3.80;99.90;;;;;;4384777;28;659530;-64
2022/11/29 04:43:28;;;;;;;53.63;22.57;;;-3.80;99.90;;;;;;4403475;28;658501;-65
2022/11/29 04:46:55;;;;;;;82.87;32.03;;;-3.80;99.90;;;;;;4392104;28;658298;-65
2022/11/29 04:49:56;;;;;;;75.87;28.60;;;-3.80;99.90;;;;;;4402557;28;658828;-65
2022/11/29 04:52:56;;;;;;;78.27;30.43;;;-3.80;99.90;;;;;;4403088;28;659418;-65
2022/11/29 04:55:45;;;;;;;61.90;24.70;;;-3.80;99.90;;;;;;4403383;28;659200;-65
2022/11/29 04:58:35;;;;;;;63.30;25.70;;;-3.80;99.90;;;;;;4404763;28;658870;-65
2022/11/29 05:01:25;;;;;;;63.87;26.20;;;-3.80;99.90;;;;;;4687095;28;659513;-64
2022/11/29 05:04:17;;;;;;;57.37;24.50;;;-3.70;99.90;;;;;;4594580;28;536066;-65
2022/11/29 05:07:06;;;;;;;58.87;26.40;;;-3.70;99.90;;;;;;4402930;28;658453;-65
2022/11/29 05:09:58;;;;;;;58.65;24.92;;;-3.70;99.90;;;;;;4403436;28;659516;-64
2022/11/29 05:12:48;;;;;;;51.70;20.97;;;-3.70;99.90;;;;;;4384067;28;658936;-65
2022/11/29 05:16:00;;;;;;;73.47;28.93;;;-3.70;99.90;;;;;;4407183;28;658679;-65
2022/11/29 05:19:26;;;;;;;105.57;41.57;;;-3.70;99.90;;;;;;4380335;28;658730;-64
2022/11/29 05:22:28;;;;;;;92.00;34.77;;;-3.70;99.90;;;;;;4373673;28;660624;-65
2022/11/29 05:25:31;;;;;;;88.87;35.63;;;-3.80;99.90;;;;;;4383959;28;658229;-65
2022/11/29 05:28:20;;;;;;;76.43;31.60;;;-3.90;99.90;;;;;;4403200;28;659518;-64
2022/11/29 05:31:19;;;;;;;128.57;42.17;;;-3.90;99.90;;;;;;4405070;28;659540;-64
2022/11/29 05:34:21;;;;;;;91.37;32.83;;;-3.90;99.90;;;;;;4382795;28;659994;-64
2022/11/29 05:37:16;;;;;;;88.83;34.83;;;-3.90;99.90;;;;;;4402905;28;660012;-64
2022/11/29 05:40:17;;;;;;;83.47;32.70;;;-4.00;99.90;;;;;;4403192;28;658748;-65
2022/11/29 05:43:16;;;;;;;95.17;36.67;;;-4.20;99.90;;;;;;4385045;28;658690;-64
2022/11/29 05:46:07;;;;;;;106.47;40.90;;;-4.40;99.90;;;;;;4387668;28;659576;-65
2022/11/29 05:48:58;;;;;;;94.57;36.83;;;-4.40;99.90;;;;;;4387669;28;659683;-65
2022/11/29 05:51:50;;;;;;;99.60;36.93;;;-4.40;99.90;;;;;;4370393;28;658328;-64
2022/11/29 05:54:39;;;;;;;125.27;33.97;;;-4.40;99.90;;;;;;4388878;28;660035;-64
2022/11/29 05:57:31;;;;;;;150.70;37.67;;;-4.30;99.90;;;;;;4391494;28;659848;-64
2022/11/29 06:00:18;;;;;;;123.37;37.37;;;-4.30;99.90;;;;;;4391206;28;659756;-64
2022/11/29 06:03:09;;;;;;;119.07;39.90;;;-4.20;99.90;;;;;;4390514;28;659895;-65
2022/11/29 06:05:59;;;;;;;137.60;43.27;;;-4.10;99.90;;;;;;4391151;28;659640;-66
2022/11/29 06:08:48;;;;;;;117.38;39.10;;;-4.10;99.90;;;;;;4391121;28;659780;-65
2022/11/29 06:11:36;;;;;;;110.93;37.47;;;-4.20;99.90;;;;;;4391027;28;659968;-65
2022/11/29 06:14:40;;;;;;;84.47;31.65;;;-4.20;99.90;;;;;;4409960;28;661222;-64
2022/11/29 06:18:00;;;;;;;84.77;30.23;;;-4.30;99.90;;;;;;4364793;28;659527;-64
2022/11/29 06:20:59;;;;;;;110.07;35.40;;;-4.30;99.90;;;;;;4334682;28;659577;-65
2022/11/29 06:23:53;;;;;;;150.73;46.57;;;-4.30;99.90;;;;;;4363624;28;660050;-65
2022/11/29 06:26:47;;;;;;;82.60;30.50;;;-4.30;99.90;;;;;;4369751;28;659937;-66
2022/11/29 06:29:38;;;;;;;83.90;30.27;;;-4.40;99.90;;;;;;4388662;28;659179;-64
2022/11/29 06:32:28;;;;;;;92.57;32.97;;;-4.30;99.90;;;;;;4378715;28;658814;-66
2022/11/29 06:35:28;;;;;;;100.73;35.27;;;-4.30;99.90;;;;;;4395451;28;658554;-66
2022/11/29 06:38:17;;;;;;;119.97;39.83;;;-4.30;99.90;;;;;;4367955;28;659736;-65
2022/11/29 06:41:06;;;;;;;69.87;27.30;;;-4.30;99.90;;;;;;4410851;28;660481;-65
2022/11/29 06:43:53;;;;;;;65.13;24.67;;;-4.20;99.90;;;;;;4432574;28;659692;-65
2022/11/29 06:46:46;;;;;;;62.73;25.53;;;-4.20;99.90;;;;;;4409202;28;658875;-65
2022/11/29 06:49:35;;;;;;;63.40;25.97;;;-4.20;99.90;;;;;;4405175;28;658901;-64
2022/11/29 06:52:25;;;;;;;66.77;26.23;;;-4.20;99.90;;;;;;4409441;28;660165;-64
2022/11/29 06:55:15;;;;;;;61.10;25.13;;;-4.10;99.90;;;;;;4403915;28;659438;-64
2022/11/29 06:58:05;;;;;;;68.03;26.77;;;-4.10;99.90;;;;;;4405244;28;659634;-65
2022/11/29 07:00:56;;;;;;;60.70;24.63;;;-4.00;99.90;;;;;;4579885;28;659735;-64
2022/11/29 07:04:00;;;;;;;65.63;27.27;;;-4.00;99.90;;;;;;4708989;28;536327;-64
2022/11/29 07:06:48;;;;;;;70.33;27.47;;;-3.90;99.90;;;;;;4409256;28;658390;-65
2022/11/29 07:09:35;;;;;;;66.93;26.70;;;-3.90;99.90;;;;;;4409512;28;658658;-66
2022/11/29 07:12:23;;;;;;;67.72;27.17;;;-3.90;99.90;;;;;;4431910;28;659111;-64
2022/11/29 07:15:14;;;;;;;68.40;26.90;;;-3.80;99.90;;;;;;4409684;28;658771;-66
2022/11/29 07:18:17;;;;;;;66.50;26.13;;;-3.60;99.90;;;;;;4408358;28;659706;-65
2022/11/29 07:21:11;;;;;;;69.50;27.07;;;-3.50;99.90;;;;;;4404812;28;658494;-65
2022/11/29 07:24:02;;;;;;;74.13;27.27;;;-3.40;99.90;;;;;;4404740;28;658769;-65
2022/11/29 07:26:51;;;;;;;67.87;27.13;;;-3.30;99.90;;;;;;4404742;28;658796;-64
2022/11/29 07:29:42;;;;;;;72.07;27.73;;;-3.20;99.90;;;;;;4404882;28;659656;-64
2022/11/29 07:32:33;;;;;;;66.10;28.07;;;-3.10;99.90;;;;;;4408743;28;658816;-64
2022/11/29 07:35:24;;;;;;;69.10;27.70;;;-3.00;99.90;;;;;;4390948;28;658364;-65
2022/11/29 07:38:16;;;;;;;64.93;27.03;;;-2.90;99.90;;;;;;4408780;28;658737;-64
2022/11/29 07:41:06;;;;;;;77.30;30.90;;;-2.70;99.90;;;;;;4404240;28;659654;-64
2022/11/29 07:43:56;;;;;;;77.75;31.13;;;-2.50;99.90;;;;;;4404383;28;659746;-64
2022/11/29 07:46:43;;;;;;;83.93;33.27;;;-2.40;99.90;;;;;;4404121;28;659777;-64
2022/11/29 07:49:30;;;;;;;64.30;26.30;;;-2.20;99.90;;;;;;4408333;28;658628;-64
2022/11/29 07:52:17;;;;;;;78.47;30.17;;;-2.00;99.90;;;;;;4426830;28;659338;-64
2022/11/29 07:55:07;;;;;;;67.47;28.13;;;-1.90;99.90;;;;;;4426825;28;658828;-64
2022/11/29 07:57:54;;;;;;;63.63;27.03;;;-1.80;99.90;;;;;;4403775;28;659484;-64
2022/11/29 08:00:41;;;;;;;60.55;27.52;;;-1.80;99.90;;;;;;4408035;28;658872;-65
2022/11/29 08:03:28;;;;;;;68.63;29.03;;;-1.80;99.90;;;;;;4426174;28;659337;-65
2022/11/29 08:06:16;;;;;;;63.17;27.20;;;-1.60;99.90;;;;;;4407282;28;659106;-65
2022/11/29 08:09:03;;;;;;;61.70;25.87;;;-1.40;99.90;;;;;;4430619;28;659508;-64
2022/11/29 08:11:52;;;;;;;59.77;24.27;;;-1.20;99.90;;;;;;4409109;28;658972;-66
2022/11/29 08:14:39;;;;;;;62.73;27.77;;;-0.90;99.90;;;;;;4426100;28;658698;-65
2022/11/29 08:17:26;;;;;;;79.53;29.23;;;-0.50;99.90;;;;;;4407118;28;658500;-65
2022/11/29 08:20:13;;;;;;;74.63;33.40;;;0.00;99.90;;;;;;4428929;28;659443;-65
2022/11/29 08:23:02;;;;;;;70.53;32.43;;;0.60;99.90;;;;;;4408851;28;657752;-66
2022/11/29 08:25:49;;;;;;;67.40;32.10;;;0.90;99.90;;;;;;4427626;28;657487;-65
2022/11/29 08:28:37;;;;;;;71.00;30.93;;;0.90;99.90;;;;;;4406963;28;657844;-65
2022/11/29 08:31:24;;;;;;;65.97;29.70;;;1.10;99.90;;;;;;4427618;28;657520;-65
2022/11/29 08:34:11;;;;;;;62.20;28.40;;;1.40;99.90;;;;;;4408833;28;657836;-65
2022/11/29 08:36:58;;;;;;;59.83;27.67;;;1.70;99.90;;;;;;4427975;28;658730;-66
2022/11/29 08:39:45;;;;;;;56.43;26.37;;;2.00;99.90;;;;;;4409134;28;657829;-66
2022/11/29 08:42:32;;;;;;;54.73;25.90;;;2.20;99.90;;;;;;4427732;28;659496;-66
2022/11/29 08:45:21;;;;;;;57.33;26.33;;;2.60;99.90;;;;;;4422236;28;657811;-67
2022/11/29 08:48:08;;;;;;;57.67;25.57;;;2.90;99.90;;;;;;4427549;28;657892;-66
2022/11/29 08:50:56;;;;;;;73.90;26.63;;;3.00;99.90;;;;;;4408894;28;657429;-66
2022/11/29 08:53:42;;;;;;;48.83;23.20;;;3.30;99.90;;;;;;4431120;28;657839;-66
2022/11/29 08:56:29;;;;;;;53.73;25.60;;;3.60;99.90;;;;;;4431718;28;657747;-67
2022/11/29 08:59:16;;;;;;;57.07;26.43;;;4.10;99.90;;;;;;4405190;28;657483;-66
2022/11/29 09:02:05;;;;;;;59.47;26.23;;;4.40;99.90;;;;;;4866052;28;657459;-66
2022/11/29 09:04:52;;;;;;;84.53;27.47;;;4.70;99.90;;;;;;4429914;28;657922;-66
2022/11/29 09:07:39;;;;;;;59.73;28.60;;;4.80;99.90;;;;;;4429824;28;656978;-67
2022/11/29 09:10:26;;;;;;;57.10;27.17;;;4.90;99.90;;;;;;4408783;28;657672;-66
2022/11/29 09:13:13;;;;;;;54.93;27.20;;;4.70;99.90;;;;;;4427540;28;658234;-66
2022/11/29 09:16:05;;;;;;;68.43;30.47;;;5.00;99.90;;;;;;4408537;28;657733;-67
2022/11/29 09:18:54;;;;;;;58.53;26.77;;;5.30;99.90;;;;;;4405880;28;659119;-66
2022/11/29 09:21:41;;;;;;;53.57;24.93;;;6.10;99.90;;;;;;4412294;28;657790;-66
2022/11/29 09:24:28;;;;;;;47.03;23.80;;;6.40;99.90;;;;;;4430519;28;657488;-66
2022/11/29 09:27:15;;;;;;;47.30;23.67;;;6.20;99.10;;;;;;4411491;28;657825;-67
2022/11/29 09:30:03;;;;;;;45.53;22.00;;;5.70;99.90;;;;;;4430279;28;659237;-66
2022/11/29 09:32:50;;;;;;;45.03;22.03;;;5.70;99.90;;;;;;4415433;28;657823;-67
2022/11/29 09:35:38;;;;;;;48.57;23.17;;;5.80;99.90;;;;;;4434321;28;658324;-66
2022/11/29 09:38:26;;;;;;;63.17;28.10;;;6.00;99.90;;;;;;4411405;28;657759;-67
2022/11/29 09:41:26;;;;;;;56.03;26.57;;;6.50;99.10;;;;;;4430381;28;658686;-65
2022/11/29 09:44:16;;;;;;;55.43;24.13;;;6.20;97.60;;;;;;4407613;28;657858;-66
2022/11/29 09:47:12;;;;;;;42.97;22.20;;;6.70;97.90;;;;;;4411137;28;658845;-66
2022/11/29 09:50:11;;;;;;;47.43;24.60;;;7.60;95.70;;;;;;4407151;28;657655;-66
2022/11/29 09:53:10;;;;;;;50.30;23.80;;;8.20;92.70;;;;;;4406575;28;658629;-67
2022/11/29 09:56:05;;;;;;;44.80;21.23;;;8.20;89.60;;;;;;4410809;28;657960;-67
2022/11/29 09:58:55;;;;;;;38.70;20.63;;;8.30;86.50;;;;;;4383909;28;659332;-66
2022/11/29 10:01:44;;;;;;;46.43;20.20;;;8.50;85.10;;;;;;4406941;28;658726;-65
2022/11/29 10:04:33;;;;;;;49.13;21.40;;;8.70;84.60;;;;;;4410814;28;657751;-66
2022/11/29 10:07:21;;;;;;;45.33;22.03;;;8.50;85.20;;;;;;4410938;28;657595;-66
2022/11/29 10:10:14;;;;;;;40.53;20.13;;;9.30;83.20;;;;;;4429492;28;657895;-65
2022/11/29 10:13:04;;;;;;;40.23;21.17;;;9.20;81.80;;;;;;4383836;28;658597;-65
2022/11/29 10:15:53;;;;;;;42.10;20.63;;;8.80;81.00;;;;;;4410719;28;657859;-66
2022/11/29 10:18:43;;;;;;;42.57;21.57;;;8.90;81.50;;;;;;4410614;28;657973;-67
2022/11/29 10:21:32;;;;;;;47.00;23.45;;;10.00;78.40;;;;;;4413577;28;657334;-67
2022/11/29 10:24:19;;;;;;;46.57;21.37;;;11.00;76.20;;;;;;4428065;28;658172;-65
2022/11/29 10:27:19;;;;;;;49.67;24.53;;;11.00;68.80;;;;;;4409740;28;659740;-65
2022/11/29 10:30:12;;;;;;;51.97;25.60;;;11.20;69.60;;;;;;4382408;28;659074;-65
2022/11/29 10:33:00;;;;;;;42.77;22.73;;;11.20;68.30;;;;;;4405344;28;658381;-65
2022/11/29 10:35:47;;;;;;;43.17;23.53;;;11.00;68.10;;;;;;4405155;28;659818;-65
2022/11/29 10:38:34;;;;;;;39.07;22.23;;;10.70;70.00;;;;;;4427959;28;659028;-64
2022/11/29 10:41:22;;;;;;;36.30;21.53;;;10.20;70.10;;;;;;4409444;28;659722;-64
2022/11/29 10:44:12;;;;;;;36.20;20.30;;;10.20;71.00;;;;;;4424711;28;658327;-65
2022/11/29 10:46:59;;;;;;;42.40;20.43;;;10.30;69.10;;;;;;4408748;28;658158;-64
2022/11/29 10:49:46;;;;;;;37.47;20.13;;;10.40;70.10;;;;;;4408984;28;658650;-64
2022/11/29 10:52:33;;;;;;;37.10;19.23;;;10.30;71.80;;;;;;4427733;28;658685;-64
2022/11/29 10:55:20;;;;;;;40.63;20.27;;;10.60;70.50;;;;;;4409247;28;658607;-64
2022/11/29 10:58:13;;;;;;;36.33;20.23;;;10.10;68.10;;;;;;4432876;28;659682;-65
2022/11/29 11:01:05;;;;;;;36.17;19.70;;;10.40;69.50;;;;;;4594585;28;658497;-65
2022/11/29 11:03:52;;;;;;;38.93;18.97;;;9.70;71.40;;;;;;4671428;28;535891;-65
2022/11/29 11:06:44;;;;;;;40.17;21.03;;;10.40;68.50;;;;;;4425130;28;657550;-66
2022/11/29 11:09:34;;;;;;;32.10;19.23;;;10.70;66.70;;;;;;4409375;28;658741;-65
2022/11/29 11:12:22;;;;;;;38.07;19.50;;;9.70;71.80;;;;;;4408431;28;658570;-65
2022/11/29 11:15:15;;;;;;;39.17;20.40;;;10.70;67.90;;;;;;4427009;28;657446;-66
2022/11/29 11:18:05;;;;;;;42.10;20.30;;;11.40;64.60;;;;;;4407188;28;658803;-65
2022/11/29 11:20:52;;;;;;;34.70;19.47;;;12.10;62.30;;;;;;4404635;28;659558;-65
2022/11/29 11:23:45;;;;;;;34.83;18.67;;;12.60;60.20;;;;;;4424964;28;660088;-66
2022/11/29 11:26:41;;;;;;;34.73;19.10;;;12.80;58.30;;;;;;4407062;28;659519;-65
2022/11/29 11:29:32;;;;;;;32.57;19.77;;;12.60;57.00;;;;;;4403406;28;658480;-65
2022/11/29 11:32:19;;;;;;;33.73;20.90;;;12.80;57.10;;;;;;4404289;28;659986;-65
2022/11/29 11:35:21;;;;;;;39.97;22.73;;;12.90;56.60;;;;;;4404365;28;661266;-65
2022/11/29 11:38:15;;;;;;;43.90;23.67;;;13.20;56.40;;;;;;4402594;28;658821;-65
2022/11/29 11:41:16;;;;;;;41.87;22.13;;;13.40;55.60;;;;;;4380698;28;659783;-65
2022/11/29 11:44:03;;;;;;;47.07;25.13;;;13.60;54.40;;;;;;4404028;28;659409;-65
2022/11/29 11:46:50;;;;;;;41.10;22.70;;;13.80;56.00;;;;;;4408497;28;659456;-66
2022/11/29 11:49:45;;;;;;;42.03;23.35;;;14.00;53.40;;;;;;4430585;28;660233;-65
2022/11/29 11:52:36;;;;;;;39.22;22.17;;;14.20;51.90;;;;;;4401585;28;659240;-65
2022/11/29 11:55:28;;;;;;;39.60;21.35;;;14.40;52.00;;;;;;4404207;28;659347;-65
2022/11/29 11:58:17;;;;;;;39.75;23.60;;;14.40;51.50;;;;;;4380862;28;658834;-65
2022/11/29 12:01:14;;;;;;;39.90;23.43;;;13.80;52.60;;;;;;4426111;28;658924;-65
2022/11/29 12:04:03;;;;;;;38.00;22.67;;;13.70;52.00;;;;;;4384311;28;658838;-65
2022/11/29 12:06:51;;;;;;;37.87;21.80;;;13.10;52.50;;;;;;4407472;28;658737;-65
2022/11/29 12:09:42;;;;;;;37.37;21.07;;;12.60;54.00;;;;;;4426891;28;660141;-65
2022/11/29 12:12:30;;;;;;;38.43;21.03;;;13.90;54.50;;;;;;4403971;28;658740;-65
2022/11/29 12:15:18;;;;;;;38.83;22.57;;;13.10;53.80;;;;;;4403875;28;659099;-65
2022/11/29 12:18:08;;;;;;;41.97;22.07;;;12.60;53.40;;;;;;4407550;28;659942;-66
2022/11/29 12:20:57;;;;;;;35.73;19.90;;;12.60;53.80;;;;;;4412639;28;658780;-65
2022/11/29 12:23:45;;;;;;;39.37;22.47;;;13.30;53.60;;;;;;4424687;28;658512;-65
2022/11/29 12:26:36;;;;;;;35.43;21.17;;;13.60;52.70;;;;;;4403255;28;660446;-65
2022/11/29 12:29:29;;;;;;;31.80;19.17;;;13.80;51.90;;;;;;4407434;28;659892;-64
2022/11/29 12:32:24;;;;;;;35.57;21.67;;;12.80;52.80;;;;;;4380372;28;660182;-65
2022/11/29 12:35:29;;;;;;;38.30;21.43;;;13.50;52.90;;;;;;4407807;28;658965;-64
2022/11/29 12:38:24;;;;;;;37.77;21.13;;;13.60;52.70;;;;;;4385057;28;658948;-65
2022/11/29 12:41:20;;;;;;;36.80;20.87;;;13.00;53.50;;;;;;4407375;28;658699;-65
2022/11/29 12:44:14;;;;;;;40.47;22.67;;;13.30;53.30;;;;;;4380813;28;659873;-64
2022/11/29 12:47:05;;;;;;;46.80;22.27;;;13.30;52.80;;;;;;4384449;28;658898;-65
2022/11/29 12:49:55;;;;;;;42.00;22.20;;;13.40;53.60;;;;;;4406811;28;659835;-65
2022/11/29 12:52:58;;;;;;;42.23;23.37;;;12.80;53.30;;;;;;4400576;28;659858;-64
2022/11/29 12:55:49;;;;;;;43.92;23.90;;;12.50;54.60;;;;;;4388196;28;659183;-65
2022/11/29 12:58:39;;;;;;;42.80;23.70;;;12.50;54.80;;;;;;4411219;28;659979;-64
2022/11/29 13:01:34;;;;;;;47.90;24.40;;;12.80;54.80;;;;;;4410682;28;660667;-64
2022/11/29 13:04:23;;;;;;;49.07;25.00;;;13.10;53.50;;;;;;4409393;28;659776;-64
2022/11/29 13:07:13;;;;;;;54.33;26.40;;;13.00;53.40;;;;;;4410583;28;659624;-65
2022/11/29 13:10:20;;;;;;;52.35;27.55;;;12.70;52.90;;;;;;4410804;28;658662;-65
2022/11/29 13:13:12;;;;;;;51.60;26.60;;;12.20;54.60;;;;;;4382664;28;658670;-64
2022/11/29 13:16:03;;;;;;;52.50;25.37;;;12.10;55.50;;;;;;4426595;28;658849;-65
2022/11/29 13:18:53;;;;;;;46.67;23.27;;;12.30;55.30;;;;;;4423558;28;658513;-65
2022/11/29 13:21:44;;;;;;;51.33;23.87;;;13.00;53.90;;;;;;4410372;28;659017;-64
2022/11/29 13:24:32;;;;;;;53.63;24.70;;;13.30;53.50;;;;;;4406508;28;660927;-64
2022/11/29 13:27:26;;;;;;;46.67;23.93;;;13.50;53.00;;;;;;4429352;28;658648;-64
2022/11/29 13:30:14;;;;;;;49.07;24.10;;;13.00;53.10;;;;;;4406800;28;659255;-63
2022/11/29 13:33:03;;;;;;;45.07;23.40;;;12.90;52.90;;;;;;4410604;28;658607;-65
2022/11/29 13:35:56;;;;;;;54.00;25.13;;;12.90;53.20;;;;;;4413830;28;659333;-65
2022/11/29 13:38:45;;;;;;;54.83;27.33;;;12.10;52.80;;;;;;4406815;28;658873;-64
2022/11/29 13:41:36;;;;;;;57.07;27.60;;;11.50;54.70;;;;;;4406714;28;658666;-64
2022/11/29 13:44:27;;;;;;;58.93;27.27;;;11.20;55.70;;;;;;4406289;28;658667;-65
2022/11/29 13:47:15;;;;;;;57.07;26.10;;;11.00;56.70;;;;;;4406223;28;659151;-64
2022/11/29 13:50:03;;;;;;;54.43;25.27;;;10.50;56.60;;;;;;4409768;28;659192;-64
2022/11/29 13:52:52;;;;;;;53.37;25.97;;;10.00;58.20;;;;;;4409671;28;659111;-64
2022/11/29 13:55:44;;;;;;;54.53;25.73;;;9.40;61.20;;;;;;4425713;28;659078;-64
2022/11/29 13:58:34;;;;;;;50.60;24.43;;;8.50;63.90;;;;;;4411142;28;657660;-64
2022/11/29 14:01:25;;;;;;;53.47;25.50;;;9.20;63.50;;;;;;4409408;28;657615;-64
2022/11/29 14:04:32;;;;;;;53.60;25.70;;;8.00;64.30;;;;;;4410611;28;658790;-64
2022/11/29 14:07:19;;;;;;;67.80;29.10;;;6.20;68.80;;;;;;4406855;28;657850;-64
2022/11/29 14:10:22;;;;;;;74.40;31.77;;;4.70;80.60;;;;;;4410838;28;657785;-64
2022/11/29 14:13:10;;;;;;;56.70;25.43;;;3.00;99.90;;;;;;4406830;28;658165;-65
2022/11/29 14:15:59;;;;;;;52.67;23.65;;;2.40;99.90;;;;;;4410996;28;658587;-64
2022/11/29 14:18:50;;;;;;;61.57;24.93;;;2.10;99.90;;;;;;4411381;28;657206;-65
2022/11/29 14:22:29;;;;;;;67.70;30.50;;;1.60;99.90;;;;;;4406985;28;657777;-64
2022/11/29 14:25:25;;;;;;;60.33;24.90;;;1.30;99.90;;;;;;4409112;28;658040;-64